createdAt,value
2022-11-05T00:00:59.030Z,100.00
2022-11-05T00:03:51.982Z,100.00
2022-11-05T00:06:43.431Z,100.00
2022-11-05T00:09:29.938Z,100.00
2022-11-05T00:12:42.829Z,100.00
2022-11-05T00:15:28.691Z,100.00
2022-11-05T00:18:03.701Z,100.00
2022-11-05T00:20:30.863Z,100.00
2022-11-05T00:23:21.294Z,100.00
2022-11-05T00:26:10.060Z,100.00
2022-11-05T00:28:44.098Z,100.00
2022-11-05T00:31:14.233Z,100.00
2022-11-05T00:33:50.289Z,100.00
2022-11-05T00:36:17.227Z,100.00
2022-11-05T00:38:45.100Z,100.00
2022-11-05T00:41:12.175Z,100.00
2022-11-05T00:43:58.957Z,100.00
2022-11-05T00:46:28.030Z,100.00
2022-11-05T00:49:13.715Z,100.00
2022-11-05T00:51:46.629Z,100.00
2022-11-05T00:54:13.658Z,100.00
2022-11-05T00:56:50.748Z,100.00
2022-11-05T00:59:17.860Z,100.00
2022-11-05T01:01:46.923Z,100.00
2022-11-05T01:04:14.889Z,100.00
2022-11-05T01:06:41.910Z,100.00
2022-11-05T01:09:08.940Z,100.00
2022-11-05T01:11:37.472Z,100.00
2022-11-05T01:14:08.661Z,100.00
2022-11-05T01:16:38.426Z,100.00
2022-11-05T01:19:07.836Z,100.00
2022-11-05T01:21:42.881Z,100.00
2022-11-05T01:24:11.096Z,100.00
2022-11-05T01:26:40.510Z,100.00
2022-11-05T01:29:07.916Z,100.00
2022-11-05T01:31:35.133Z,100.00
2022-11-05T01:34:02.273Z,100.00
2022-11-05T01:36:29.405Z,100.00
2022-11-05T01:39:00.191Z,100.00
2022-11-05T01:41:27.181Z,100.00
2022-11-05T01:43:57.023Z,100.00
2022-11-05T01:46:47.305Z,100.00
2022-11-05T01:49:43.344Z,100.00
2022-11-05T01:52:15.799Z,100.00
2022-11-05T01:54:44.787Z,100.00
2022-11-05T01:57:15.109Z,100.00
2022-11-05T01:59:48.019Z,100.00
2022-11-05T02:02:18.696Z,100.00
2022-11-05T02:04:54.599Z,100.00
2022-11-05T02:07:26.483Z,100.00
2022-11-05T02:10:08.730Z,100.00
2022-11-05T02:12:41.625Z,100.00
2022-11-05T02:15:14.923Z,100.00
2022-11-05T02:17:52.941Z,100.00
2022-11-05T02:20:59.371Z,100.00
2022-11-05T02:23:35.204Z,100.00
2022-11-05T02:26:46.379Z,100.00
2022-11-05T02:29:35.635Z,100.00
2022-11-05T02:32:40.266Z,100.00
2022-11-05T02:35:39.259Z,100.00
2022-11-05T02:38:36.460Z,100.00
2022-11-05T02:41:23.909Z,100.00
2022-11-05T02:44:26.076Z,100.00
2022-11-05T02:47:22.149Z,100.00
2022-11-05T02:50:18.459Z,100.00
2022-11-05T02:53:06.619Z,100.00
2022-11-05T02:55:52.785Z,100.00
2022-11-05T02:58:31.180Z,100.00
2022-11-05T03:01:18.827Z,100.00
2022-11-05T03:04:01.268Z,100.00
2022-11-05T03:07:05.540Z,100.00
2022-11-05T03:10:08.802Z,100.00
2022-11-05T03:12:57.401Z,100.00
2022-11-05T03:15:39.190Z,100.00
2022-11-05T03:18:15.461Z,100.00
2022-11-05T03:21:01.506Z,100.00
2022-11-05T03:24:03.226Z,100.00
2022-11-05T03:26:43.344Z,100.00
2022-11-05T03:29:15.220Z,100.00
2022-11-05T03:31:51.522Z,100.00
2022-11-05T03:34:22.104Z,100.00
2022-11-05T03:37:19.834Z,100.00
2022-11-05T03:39:59.090Z,100.00
2022-11-05T03:42:29.798Z,100.00
2022-11-05T03:45:03.395Z,100.00
2022-11-05T03:47:38.325Z,100.00
2022-11-05T03:50:35.910Z,100.00
2022-11-05T03:53:29.100Z,100.00
2022-11-05T03:56:15.889Z,100.00
2022-11-05T03:58:45.590Z,100.00
2022-11-05T04:01:21.901Z,100.00
2022-11-05T04:03:48.906Z,100.00
2022-11-05T04:06:35.738Z,100.00
2022-11-05T04:09:29.428Z,100.00
2022-11-05T04:12:16.004Z,100.00
2022-11-05T04:14:51.055Z,100.00
2022-11-05T04:17:18.964Z,100.00
2022-11-05T04:20:05.833Z,100.00
2022-11-05T04:22:55.055Z,100.00
2022-11-05T04:25:28.201Z,100.00
2022-11-05T04:28:03.414Z,100.00
2022-11-05T04:30:30.346Z,100.00
2022-11-05T04:33:11.485Z,100.00
2022-11-05T04:35:41.696Z,100.00
2022-11-05T04:38:20.763Z,100.00
2022-11-05T04:40:51.614Z,100.00
2022-11-05T04:43:23.110Z,100.00
2022-11-05T04:45:52.547Z,100.00
2022-11-05T04:48:26.783Z,100.00
2022-11-05T04:50:55.918Z,100.00
2022-11-05T04:53:22.923Z,100.00
2022-11-05T04:55:50.875Z,100.00
2022-11-05T04:58:43.231Z,100.00
2022-11-05T05:01:20.060Z,100.00
2022-11-05T05:04:02.858Z,100.00
2022-11-05T05:06:59.949Z,100.00
2022-11-05T05:09:27.015Z,100.00
2022-11-05T05:12:02.838Z,100.00
2022-11-05T05:14:30.751Z,100.00
2022-11-05T05:16:58.609Z,100.00
2022-11-05T05:19:59.270Z,100.00
2022-11-05T05:22:32.088Z,100.00
2022-11-05T05:25:00.474Z,100.00
2022-11-05T05:27:35.654Z,100.00
2022-11-05T05:30:03.984Z,100.00
2022-11-05T05:32:38.558Z,100.00
2022-11-05T05:35:06.876Z,100.00
2022-11-05T05:37:34.000Z,100.00
2022-11-05T05:40:01.976Z,100.00
2022-11-05T05:42:28.840Z,100.00
2022-11-05T05:44:57.779Z,100.00
2022-11-05T05:47:25.797Z,100.00
2022-11-05T05:50:01.045Z,100.00
2022-11-05T05:52:28.904Z,100.00
2022-11-05T05:55:01.956Z,100.00
2022-11-05T05:57:29.928Z,100.00
2022-11-05T06:00:01.346Z,100.00
2022-11-05T06:02:32.343Z,100.00
2022-11-05T06:05:01.881Z,100.00
2022-11-05T06:07:37.445Z,100.00
2022-11-05T06:10:06.400Z,100.00
2022-11-05T06:12:37.495Z,100.00
2022-11-05T06:15:05.912Z,100.00
2022-11-05T06:17:44.699Z,100.00
2022-11-05T06:20:15.677Z,100.00
2022-11-05T06:22:42.820Z,100.00
2022-11-05T06:25:11.904Z,100.00
2022-11-05T06:27:39.046Z,100.00
2022-11-05T06:30:13.351Z,100.00
2022-11-05T06:32:41.431Z,100.00
2022-11-05T06:35:09.894Z,100.00
2022-11-05T06:37:36.753Z,100.00
2022-11-05T06:40:10.358Z,100.00
2022-11-05T06:42:38.109Z,100.00
2022-11-05T06:45:06.709Z,100.00
2022-11-05T06:47:33.649Z,100.00
2022-11-05T06:50:01.665Z,100.00
2022-11-05T06:52:31.605Z,100.00
2022-11-05T06:55:01.803Z,100.00
2022-11-05T06:57:33.803Z,100.00
2022-11-05T07:00:07.304Z,100.00
2022-11-05T07:02:35.896Z,100.00
2022-11-05T07:05:04.030Z,100.00
2022-11-05T07:07:32.013Z,100.00
2022-11-05T07:10:00.011Z,100.00
2022-11-05T07:12:27.126Z,100.00
2022-11-05T07:15:12.543Z,100.00
2022-11-05T07:17:41.653Z,100.00
2022-11-05T07:20:11.034Z,100.00
2022-11-05T07:22:40.245Z,100.00
2022-11-05T07:25:16.415Z,100.00
2022-11-05T07:27:44.139Z,100.00
2022-11-05T07:30:13.254Z,100.00
2022-11-05T07:32:41.552Z,100.00
2022-11-05T07:35:09.779Z,100.00
2022-11-05T07:37:48.221Z,100.00
2022-11-05T07:40:18.435Z,100.00
2022-11-05T07:42:47.170Z,100.00
2022-11-05T07:45:21.533Z,100.00
2022-11-05T07:47:52.333Z,100.00
2022-11-05T07:50:28.244Z,100.00
2022-11-05T07:53:01.512Z,100.00
2022-11-05T07:55:29.310Z,100.00
2022-11-05T07:57:56.304Z,100.00
2022-11-05T08:00:25.684Z,100.00
2022-11-05T08:03:14.751Z,100.00
2022-11-05T08:05:44.924Z,100.00
2022-11-05T08:08:16.215Z,100.00
2022-11-05T08:10:45.353Z,100.00
2022-11-05T08:13:14.386Z,100.00
2022-11-05T08:15:43.982Z,100.00
2022-11-05T08:18:16.484Z,100.00
2022-11-05T08:20:51.018Z,100.00
2022-11-05T08:23:18.062Z,100.00
2022-11-05T08:26:04.259Z,100.00
2022-11-05T08:28:38.322Z,100.00
2022-11-05T08:31:06.327Z,100.00
2022-11-05T08:33:39.509Z,100.00
2022-11-05T08:36:07.769Z,100.00
2022-11-05T08:38:35.088Z,100.00
2022-11-05T08:41:09.000Z,100.00
2022-11-05T08:43:45.245Z,100.00
2022-11-05T08:46:12.298Z,100.00
2022-11-05T08:48:42.320Z,100.00
2022-11-05T08:51:16.078Z,100.00
2022-11-05T08:53:43.014Z,100.00
2022-11-05T08:56:11.978Z,100.00
2022-11-05T08:58:39.935Z,100.00
2022-11-05T09:01:07.185Z,100.00
2022-11-05T09:03:39.515Z,100.00
2022-11-05T09:06:09.744Z,100.00
2022-11-05T09:08:36.681Z,100.00
2022-11-05T09:11:14.310Z,100.00
2022-11-05T09:13:46.318Z,100.00
2022-11-05T09:16:30.277Z,100.00
2022-11-05T09:19:08.400Z,100.00
2022-11-05T09:21:44.405Z,100.00
2022-11-05T09:24:12.387Z,100.00
2022-11-05T09:26:39.523Z,100.00
2022-11-05T09:29:09.221Z,100.00
2022-11-05T09:31:41.768Z,100.00
2022-11-05T09:34:08.747Z,100.00
2022-11-05T09:36:35.727Z,100.00
2022-11-05T09:39:04.105Z,100.00
2022-11-05T09:41:37.677Z,100.00
2022-11-05T09:44:22.550Z,100.00
2022-11-05T09:47:05.465Z,100.00
2022-11-05T09:49:53.715Z,100.00
2022-11-05T09:52:32.337Z,100.00
2022-11-05T09:55:17.064Z,100.00
2022-11-05T09:57:52.618Z,100.00
2022-11-05T10:00:20.922Z,100.00
2022-11-05T10:02:58.903Z,100.00
2022-11-05T10:05:28.037Z,100.00
2022-11-05T10:08:33.141Z,100.00
2022-11-05T10:11:10.339Z,100.00
2022-11-05T10:13:44.688Z,100.00
2022-11-05T10:16:25.625Z,100.00
2022-11-05T10:19:06.395Z,100.00
2022-11-05T10:22:05.080Z,100.00
2022-11-05T10:24:33.710Z,99.73
2022-11-05T10:27:00.956Z,97.92
2022-11-05T10:29:35.370Z,98.13
2022-11-05T10:32:06.305Z,97.22
2022-11-05T10:34:37.837Z,95.18
2022-11-05T10:37:06.350Z,95.69
2022-11-05T10:39:39.614Z,96.04
2022-11-05T10:42:51.037Z,96.74
2022-11-05T10:45:57.962Z,97.43
2022-11-05T10:48:49.074Z,97.49
2022-11-05T10:51:20.057Z,98.08
2022-11-05T10:53:58.838Z,97.69
2022-11-05T10:56:39.154Z,97.11
2022-11-05T10:59:24.738Z,97.00
2022-11-05T11:02:15.171Z,95.39
2022-11-05T11:04:53.239Z,93.82
2022-11-05T11:07:25.776Z,93.56
2022-11-05T11:09:53.292Z,92.70
2022-11-05T11:12:27.855Z,92.39
2022-11-05T11:15:15.174Z,92.01
2022-11-05T11:17:42.450Z,90.32
2022-11-05T11:20:26.193Z,90.13
2022-11-05T11:23:14.411Z,90.34
2022-11-05T11:26:03.984Z,92.12
2022-11-05T11:28:48.616Z,92.20
2022-11-05T11:31:26.847Z,92.41
2022-11-05T11:34:06.277Z,93.89
2022-11-05T11:36:44.961Z,95.34
2022-11-05T11:39:26.937Z,95.57
2022-11-05T11:42:10.900Z,96.32
2022-11-05T11:44:45.858Z,96.66
2022-11-05T11:47:19.526Z,96.50
2022-11-05T11:49:50.648Z,96.77
2022-11-05T11:52:32.279Z,95.60
2022-11-05T11:55:11.479Z,94.45
2022-11-05T11:57:54.569Z,94.15
2022-11-05T12:00:29.639Z,96.04
2022-11-05T12:03:24.710Z,96.29
2022-11-05T12:06:07.673Z,93.93
2022-11-05T12:09:03.428Z,92.74
2022-11-05T12:11:46.113Z,93.45
2022-11-05T12:14:22.375Z,93.78
2022-11-05T12:17:34.367Z,91.58
2022-11-05T12:20:26.504Z,92.58
2022-11-05T12:23:15.000Z,91.74
2022-11-05T12:25:57.670Z,90.26
2022-11-05T12:29:18.490Z,88.51
2022-11-05T12:32:22.627Z,87.98
2022-11-05T12:35:22.206Z,86.96
2022-11-05T12:37:55.666Z,85.92
2022-11-05T12:40:46.769Z,85.87
2022-11-05T12:43:33.151Z,86.30
2022-11-05T12:46:20.143Z,86.86
2022-11-05T12:48:55.182Z,87.02
2022-11-05T12:51:57.632Z,88.97
2022-11-05T12:54:47.811Z,89.15
2022-11-05T12:57:20.514Z,88.58
2022-11-05T12:59:57.089Z,89.02
2022-11-05T13:02:44.638Z,88.43
2022-11-05T13:05:26.818Z,88.58
2022-11-05T13:08:01.155Z,88.34
2022-11-05T13:10:52.192Z,88.96
2022-11-05T13:13:35.246Z,89.11
2022-11-05T13:16:25.647Z,89.54
2022-11-05T13:18:58.704Z,90.25
2022-11-05T13:21:34.635Z,90.09
2022-11-05T13:24:12.289Z,90.31
2022-11-05T13:26:55.715Z,90.43
2022-11-05T13:29:38.050Z,89.96
2022-11-05T13:32:17.585Z,90.26
2022-11-05T13:34:44.890Z,91.03
2022-11-05T13:37:38.736Z,89.90
2022-11-05T13:40:11.018Z,90.03
2022-11-05T13:42:57.179Z,89.07
2022-11-05T13:45:33.611Z,89.39
2022-11-05T13:48:20.384Z,89.94
2022-11-05T13:51:23.268Z,90.20
2022-11-05T13:54:30.550Z,89.09
2022-11-05T13:57:28.278Z,89.05
2022-11-05T13:59:58.167Z,87.96
2022-11-05T14:02:52.514Z,88.42
2022-11-05T14:05:32.981Z,88.60
2022-11-05T14:08:09.505Z,88.31
2022-11-05T14:11:20.147Z,88.74
2022-11-05T14:13:52.094Z,87.00
2022-11-05T14:16:27.413Z,85.96
2022-11-05T14:19:20.255Z,85.09
2022-11-05T14:21:55.531Z,84.68
2022-11-05T14:24:39.336Z,85.73
2022-11-05T14:27:10.334Z,86.27
2022-11-05T14:29:46.756Z,87.04
2022-11-05T14:32:25.792Z,87.22
2022-11-05T14:35:18.444Z,87.24
2022-11-05T14:37:53.763Z,87.77
2022-11-05T14:40:30.619Z,87.04
2022-11-05T14:43:03.519Z,86.73
2022-11-05T14:45:37.019Z,86.95
2022-11-05T14:48:08.398Z,86.87
2022-11-05T14:50:36.874Z,87.52
2022-11-05T14:53:11.940Z,87.09
2022-11-05T14:55:47.347Z,86.92
2022-11-05T14:58:33.188Z,87.53
2022-11-05T15:01:01.976Z,87.94
2022-11-05T15:03:53.238Z,87.77
2022-11-05T15:07:14.799Z,87.69
2022-11-05T15:09:54.758Z,87.61
2022-11-05T15:12:44.003Z,87.82
2022-11-05T15:15:23.754Z,88.06
2022-11-05T15:18:12.755Z,88.33
2022-11-05T15:20:54.580Z,88.63
2022-11-05T15:23:27.259Z,88.88
2022-11-05T15:26:03.675Z,89.30
2022-11-05T15:28:38.558Z,89.60
2022-11-05T15:31:21.286Z,90.40
2022-11-05T15:33:51.156Z,90.80
2022-11-05T15:36:23.823Z,90.83
2022-11-05T15:39:22.876Z,90.76
2022-11-05T15:41:52.616Z,90.60
2022-11-05T15:44:41.691Z,90.91
2022-11-05T15:47:30.179Z,91.30
2022-11-05T15:50:14.106Z,91.43
2022-11-05T15:52:54.051Z,91.52
2022-11-05T15:55:26.122Z,91.96
2022-11-05T15:58:12.056Z,91.79
2022-11-05T16:00:48.214Z,91.74
2022-11-05T16:03:33.745Z,91.90
2022-11-05T16:06:03.297Z,91.86
2022-11-05T16:08:32.887Z,91.91
2022-11-05T16:11:05.838Z,92.51
2022-11-05T16:13:39.541Z,91.58
2022-11-05T16:16:23.954Z,91.12
2022-11-05T16:18:52.094Z,91.17
2022-11-05T16:21:23.993Z,91.49
2022-11-05T16:23:56.723Z,92.26
2022-11-05T16:29:51.496Z,92.16
2022-11-05T16:32:29.831Z,92.12
2022-11-05T16:35:02.828Z,92.50
2022-11-05T16:37:37.870Z,92.32
2022-11-05T16:40:15.049Z,92.62
2022-11-05T16:42:48.860Z,92.46
2022-11-05T16:45:23.335Z,92.88
2022-11-05T16:47:51.475Z,92.91
2022-11-05T16:50:27.634Z,93.03
2022-11-05T16:52:55.949Z,92.83
2022-11-05T16:55:27.861Z,93.06
2022-11-05T16:57:56.659Z,93.33
2022-11-05T17:00:28.066Z,93.73
2022-11-05T17:02:56.482Z,93.64
2022-11-05T17:05:43.820Z,93.61
2022-11-05T17:08:12.471Z,93.39
2022-11-05T17:10:41.014Z,93.36
2022-11-05T17:13:09.589Z,93.67
2022-11-05T17:15:38.848Z,94.02
2022-11-05T17:18:07.088Z,94.11
2022-11-05T17:20:42.214Z,94.33
2022-11-05T17:23:19.089Z,94.22
2022-11-05T17:25:55.375Z,94.88
2022-11-05T17:28:23.656Z,95.70
2022-11-05T17:30:53.276Z,96.42
2022-11-05T17:33:26.661Z,96.85
2022-11-05T17:35:58.416Z,96.87
2022-11-05T17:38:27.834Z,97.50
2022-11-05T17:40:55.258Z,97.87
2022-11-05T17:43:23.987Z,98.03
2022-11-05T17:45:53.492Z,97.92
2022-11-05T17:48:22.548Z,97.45
2022-11-05T17:51:00.410Z,97.67
2022-11-05T17:53:31.534Z,98.16
2022-11-05T17:55:59.139Z,98.96
2022-11-05T18:01:23.364Z,100.00
2022-11-05T18:04:01.295Z,100.00
2022-11-05T18:06:32.400Z,100.00
2022-11-05T18:08:59.654Z,100.00
2022-11-05T18:11:26.740Z,100.00
2022-11-05T18:13:54.194Z,100.00
2022-11-05T18:16:21.972Z,100.00
2022-11-05T18:18:51.371Z,100.00
2022-11-05T18:21:20.958Z,100.00
2022-11-05T18:23:49.244Z,100.00
2022-11-05T18:26:17.050Z,100.00
2022-11-05T18:28:46.941Z,100.00
2022-11-05T18:31:21.255Z,100.00
2022-11-05T18:33:58.451Z,100.00
2022-11-05T18:36:31.638Z,100.00
2022-11-05T18:39:02.960Z,100.00
2022-11-05T18:41:40.696Z,100.00
2022-11-05T18:44:08.460Z,100.00
2022-11-05T18:49:28.435Z,100.00
2022-11-05T18:52:03.675Z,100.00
2022-11-05T18:54:34.327Z,100.00
2022-11-05T18:57:03.359Z,100.00
2022-11-05T18:59:37.814Z,100.00
2022-11-05T19:02:09.176Z,100.00
2022-11-05T19:04:46.786Z,100.00
2022-11-05T19:07:24.465Z,100.00
2022-11-05T19:09:51.809Z,100.00
2022-11-05T19:12:20.514Z,100.00
2022-11-05T19:14:48.137Z,100.00
2022-11-05T19:17:19.436Z,100.00
2022-11-05T19:19:48.910Z,100.00
2022-11-05T19:22:16.570Z,100.00
2022-11-05T19:24:47.351Z,100.00
2022-11-05T19:27:27.628Z,100.00
2022-11-05T19:29:55.235Z,100.00
2022-11-05T19:32:30.616Z,100.00
2022-11-05T19:34:59.263Z,100.00
2022-11-05T19:37:30.802Z,100.00
2022-11-05T19:39:58.577Z,100.00
2022-11-05T19:42:50.664Z,100.00
2022-11-05T19:45:43.591Z,100.00
2022-11-05T19:48:13.374Z,100.00
2022-11-05T19:50:49.692Z,100.00
2022-11-05T19:53:19.401Z,100.00
2022-11-05T19:55:49.000Z,100.00
2022-11-05T19:58:19.707Z,100.00
2022-11-05T20:00:50.503Z,100.00
2022-11-05T20:03:19.273Z,100.00
2022-11-05T20:05:52.739Z,100.00
2022-11-05T20:08:23.738Z,100.00
2022-11-05T20:11:07.395Z,100.00
2022-11-05T20:13:36.538Z,100.00
2022-11-05T20:16:06.087Z,100.00
2022-11-05T20:18:48.489Z,100.00
2022-11-05T20:21:22.780Z,100.00
2022-11-05T20:23:51.337Z,100.00
2022-11-05T20:26:22.693Z,100.00
2022-11-05T20:28:50.429Z,100.00
2022-11-05T20:31:25.027Z,100.00
2022-11-05T20:34:00.734Z,100.00
2022-11-05T20:36:30.614Z,100.00
2022-11-05T20:39:00.679Z,100.00
2022-11-05T20:41:32.432Z,100.00
2022-11-05T20:44:09.812Z,100.00
2022-11-05T20:46:39.073Z,100.00
2022-11-05T20:49:12.633Z,100.00
2022-11-05T20:51:41.032Z,100.00
2022-11-05T20:54:12.694Z,100.00
2022-11-05T20:56:45.497Z,100.00
2022-11-05T20:59:18.607Z,100.00
2022-11-05T21:01:52.163Z,100.00
2022-11-05T21:04:26.268Z,100.00
2022-11-05T21:06:54.074Z,100.00
2022-11-05T21:09:23.255Z,100.00
2022-11-05T21:12:09.494Z,100.00
2022-11-05T21:14:44.908Z,100.00
2022-11-05T21:17:17.535Z,100.00
2022-11-05T21:19:47.056Z,100.00
2022-11-05T21:22:17.416Z,100.00
2022-11-05T21:24:45.162Z,100.00
2022-11-05T21:27:12.622Z,100.00
2022-11-05T21:29:40.803Z,100.00
2022-11-05T21:32:08.622Z,100.00
2022-11-05T21:34:36.074Z,100.00
2022-11-05T21:37:06.227Z,100.00
2022-11-05T21:39:44.527Z,100.00
2022-11-05T21:42:16.718Z,100.00
2022-11-05T21:45:00.603Z,100.00
2022-11-05T21:47:37.374Z,100.00
2022-11-05T21:50:07.097Z,100.00
2022-11-05T21:53:13.294Z,100.00
2022-11-05T21:56:06.303Z,100.00
2022-11-05T21:58:52.865Z,100.00
2022-11-05T22:01:20.184Z,100.00
2022-11-05T22:04:03.249Z,100.00
2022-11-05T22:07:04.152Z,100.00
2022-11-05T22:09:37.450Z,100.00
2022-11-05T22:12:06.266Z,100.00
2022-11-05T22:14:34.463Z,100.00
2022-11-05T22:17:03.226Z,100.00
2022-11-05T22:19:37.103Z,100.00
2022-11-05T22:22:09.668Z,100.00
2022-11-05T22:24:40.672Z,100.00
2022-11-05T22:27:22.196Z,100.00
2022-11-05T22:29:50.828Z,100.00
2022-11-05T22:32:18.054Z,100.00
2022-11-05T22:34:51.215Z,100.00
2022-11-05T22:37:25.647Z,100.00
2022-11-05T22:39:53.794Z,100.00
2022-11-05T22:42:20.838Z,100.00
2022-11-05T22:44:49.934Z,100.00
2022-11-05T22:47:22.017Z,100.00
2022-11-05T22:50:12.053Z,100.00
2022-11-05T22:52:49.097Z,100.00
2022-11-05T22:55:22.188Z,100.00
2022-11-05T22:58:18.278Z,100.00
2022-11-05T23:00:52.479Z,100.00
2022-11-05T23:03:21.474Z,100.00
2022-11-05T23:05:57.234Z,100.00
2022-11-05T23:09:01.535Z,100.00
2022-11-05T23:11:39.778Z,100.00
2022-11-05T23:14:23.882Z,100.00
2022-11-05T23:17:13.514Z,100.00
2022-11-05T23:19:59.657Z,100.00
2022-11-05T23:22:52.785Z,100.00
2022-11-05T23:25:26.534Z,100.00
2022-11-05T23:28:00.328Z,100.00
2022-11-05T23:31:03.454Z,100.00
2022-11-05T23:33:37.149Z,100.00
2022-11-05T23:36:33.730Z,100.00
2022-11-05T23:39:10.828Z,100.00
2022-11-05T23:42:14.590Z,100.00
2022-11-05T23:45:10.329Z,100.00
2022-11-05T23:48:11.703Z,100.00
2022-11-05T23:50:43.827Z,100.00
2022-11-05T23:53:23.813Z,100.00
2022-11-05T23:55:58.979Z,100.00
2022-11-05T23:58:27.770Z,100.00
